createdAt,value
2019-04-14T00:01:39.092Z,46.73
2019-04-14T00:09:48.005Z,50.30
2019-04-14T00:12:16.701Z,45.80
2019-04-14T00:14:53.450Z,44.88
2019-04-14T00:17:28.394Z,46.18
2019-04-14T00:23:34.784Z,48.80
2019-04-14T00:26:27.147Z,50.48
2019-04-14T00:31:57.055Z,49.50
2019-04-14T00:34:30.707Z,47.88
2019-04-14T00:37:08.036Z,50.58
2019-04-14T00:39:42.216Z,44.55
2019-04-14T00:42:27.835Z,47.13
2019-04-14T00:48:01.119Z,50.48
2019-04-14T00:50:36.607Z,47.70
2019-04-14T00:53:05.766Z,51.18
2019-04-14T01:04:57.638Z,45.45
2019-04-14T01:13:22.181Z,41.33
2019-04-14T01:16:11.613Z,39.20
2019-04-14T01:32:54.544Z,37.08
2019-04-14T01:35:31.413Z,30.55
2019-04-14T02:06:15.747Z,33.25
2019-04-14T02:08:47.929Z,28.57
2019-04-14T02:11:40.618Z,28.42
2019-04-14T02:24:28.862Z,28.67
2019-04-14T02:48:02.564Z,26.85
2019-04-14T03:09:47.093Z,31.00
2019-04-14T03:12:57.962Z,32.95
2019-04-14T03:15:56.754Z,32.58
2019-04-14T03:51:47.740Z,31.62
2019-04-14T04:12:44.270Z,34.43
2019-04-14T04:19:15.608Z,30.68
2019-04-14T04:34:35.847Z,31.65
2019-04-14T06:02:30.553Z,27.42
2019-04-14T06:12:11.913Z,31.17
2019-04-14T06:21:23.391Z,32.33
2019-04-14T06:23:57.079Z,31.77
2019-04-14T06:26:25.847Z,30.43
2019-04-14T06:29:02.263Z,38.02
2019-04-14T06:31:32.827Z,31.68
2019-04-14T06:34:41.635Z,33.05
2019-04-14T06:37:19.344Z,32.00
2019-04-14T06:39:52.159Z,30.92
2019-04-14T06:42:28.045Z,33.85
2019-04-14T06:44:58.786Z,36.83
2019-04-14T06:47:27.589Z,38.80
2019-04-14T06:49:56.577Z,39.92
2019-04-14T06:52:25.275Z,35.48
2019-04-14T06:55:00.217Z,35.48
2019-04-14T06:57:38.616Z,36.90
2019-04-14T07:00:10.720Z,38.60
2019-04-14T07:02:39.574Z,40.15
2019-04-14T07:05:10.101Z,39.35
2019-04-14T07:07:39.012Z,36.28
2019-04-14T07:10:14.182Z,39.70
2019-04-14T07:12:47.086Z,36.30
2019-04-14T07:15:15.700Z,35.45
2019-04-14T07:18:01.871Z,37.15
2019-04-14T07:23:22.110Z,31.05
2019-04-14T07:25:55.819Z,37.48
2019-04-14T07:31:06.906Z,34.90
2019-04-14T07:39:52.687Z,31.33
2019-04-14T07:42:23.199Z,32.25
2019-04-14T07:49:07.805Z,32.75
2019-04-14T07:50:44.291Z,31.42
2019-04-14T07:53:34.717Z,38.28
2019-04-14T07:56:15.237Z,32.95
2019-04-14T07:59:03.918Z,31.57
2019-04-14T08:01:54.156Z,32.20
2019-04-14T08:04:48.229Z,31.12
2019-04-14T08:07:17.399Z,36.30
2019-04-14T08:09:52.141Z,32.20
2019-04-14T08:12:21.014Z,29.65
2019-04-14T08:14:49.902Z,31.75
2019-04-14T08:17:18.580Z,34.60
2019-04-14T08:19:47.697Z,29.82
2019-04-14T08:25:01.753Z,28.83
2019-04-14T08:27:30.736Z,37.15
2019-04-14T08:30:01.796Z,30.30
2019-04-14T08:32:30.561Z,29.82
2019-04-14T08:34:59.646Z,29.75
2019-04-14T08:37:28.339Z,27.58
2019-04-14T08:39:57.200Z,29.72
2019-04-14T08:42:39.446Z,31.27
2019-04-14T08:45:16.133Z,31.35
2019-04-14T08:47:52.056Z,24.90
2019-04-14T08:50:25.177Z,25.15
2019-04-14T08:52:59.809Z,25.95
2019-04-14T08:55:33.771Z,29.37
2019-04-14T09:00:42.442Z,24.02
2019-04-14T09:03:15.316Z,23.40
2019-04-14T09:05:57.510Z,22.95
2019-04-14T09:08:28.024Z,23.92
2019-04-14T09:11:04.123Z,23.50
2019-04-14T09:13:32.854Z,25.10
2019-04-14T09:16:01.650Z,23.90
2019-04-14T09:18:30.419Z,20.80
2019-04-14T09:21:00.791Z,24.98
2019-04-14T09:23:29.497Z,21.07
2019-04-14T09:25:58.283Z,22.65
2019-04-14T09:28:27.153Z,19.30
2019-04-14T09:30:55.935Z,24.32
2019-04-14T09:33:24.756Z,24.20
2019-04-14T09:35:53.419Z,23.18
2019-04-14T09:38:22.196Z,22.52
2019-04-14T09:40:52.586Z,22.05
2019-04-14T09:43:22.463Z,22.32
2019-04-14T09:45:51.298Z,21.87
2019-04-14T09:48:21.979Z,27.80
2019-04-14T09:50:50.646Z,22.87
2019-04-14T09:53:21.456Z,23.62
2019-04-14T09:55:50.380Z,24.52
2019-04-14T09:58:21.334Z,22.15
2019-04-14T10:00:54.299Z,25.90
2019-04-14T10:03:23.460Z,24.83
2019-04-14T10:05:52.178Z,27.82
2019-04-14T10:08:23.965Z,22.35
2019-04-14T10:10:52.793Z,18.67
2019-04-14T10:13:21.536Z,19.27
2019-04-14T10:15:50.459Z,20.60
2019-04-14T10:18:20.522Z,18.75
2019-04-14T10:20:49.304Z,20.43
2019-04-14T10:23:20.561Z,18.73
2019-04-14T10:25:49.367Z,18.60
2019-04-14T10:28:18.797Z,18.55
2019-04-14T10:30:47.912Z,17.87
2019-04-14T10:33:16.579Z,17.62
2019-04-14T10:35:45.267Z,16.48
2019-04-14T10:38:14.005Z,18.27
2019-04-14T10:40:44.704Z,17.57
2019-04-14T10:43:13.588Z,18.17
2019-04-14T10:45:42.375Z,17.00
2019-04-14T10:48:16.776Z,20.15
2019-04-14T10:50:49.726Z,16.10
2019-04-14T10:53:18.483Z,18.50
2019-04-14T10:55:47.310Z,18.10
2019-04-14T10:58:16.467Z,16.10
2019-04-14T11:00:45.415Z,19.70
2019-04-14T11:03:16.912Z,15.30
2019-04-14T11:05:50.665Z,16.60
2019-04-14T11:08:20.051Z,16.10
2019-04-14T11:10:51.874Z,16.82
2019-04-14T11:13:21.711Z,16.02
2019-04-14T11:15:50.877Z,17.82
2019-04-14T11:18:20.859Z,14.03
2019-04-14T11:20:49.691Z,16.60
2019-04-14T11:23:20.094Z,14.68
2019-04-14T11:25:50.439Z,12.73
2019-04-14T11:28:21.993Z,13.25
2019-04-14T11:30:51.442Z,12.55
2019-04-14T11:33:32.615Z,13.65
2019-04-14T11:36:17.724Z,12.07
2019-04-14T11:38:50.775Z,12.18
2019-04-14T11:41:21.323Z,16.23
2019-04-14T11:43:49.999Z,13.00
2019-04-14T11:46:18.933Z,11.50
2019-04-14T11:48:47.827Z,13.75
2019-04-14T11:51:16.584Z,9.65
2019-04-14T11:53:45.371Z,10.13
2019-04-14T11:56:15.057Z,12.58
2019-04-14T11:58:43.979Z,11.60
2019-04-14T12:01:30.539Z,12.28
2019-04-14T12:04:00.870Z,8.95
2019-04-14T12:06:31.208Z,10.45
2019-04-14T12:09:16.748Z,11.05
2019-04-14T12:11:45.458Z,10.32
2019-04-14T12:14:17.112Z,10.45
2019-04-14T12:16:45.803Z,10.13
2019-04-14T12:19:14.531Z,12.60
2019-04-14T12:21:43.437Z,11.15
2019-04-14T12:24:12.235Z,12.50
2019-04-14T12:26:41.062Z,10.15
2019-04-14T12:29:11.710Z,10.32
2019-04-14T12:31:41.895Z,13.15
2019-04-14T12:34:10.948Z,12.25
2019-04-14T12:36:39.730Z,12.98
2019-04-14T12:39:17.619Z,11.10
2019-04-14T12:41:48.126Z,12.85
2019-04-14T12:44:37.199Z,11.12
2019-04-14T12:47:07.760Z,12.43
2019-04-14T12:49:40.751Z,13.58
2019-04-14T12:52:23.900Z,14.83
2019-04-14T12:54:52.844Z,11.78
2019-04-14T12:57:28.079Z,12.30
2019-04-14T12:59:58.741Z,10.60
2019-04-14T13:02:31.452Z,15.13
2019-04-14T13:07:53.456Z,13.53
2019-04-14T13:10:22.255Z,11.53
2019-04-14T13:12:51.066Z,14.15
2019-04-14T13:15:19.892Z,12.98
2019-04-14T13:17:51.317Z,13.65
2019-04-14T13:23:48.420Z,11.65
2019-04-14T13:29:21.687Z,13.18
2019-04-14T13:31:50.452Z,10.25
2019-04-14T13:34:19.129Z,11.88
2019-04-14T13:44:00.700Z,9.18
2019-04-14T13:49:34.584Z,8.58
2019-04-14T13:55:32.150Z,9.40
2019-04-14T13:58:00.940Z,10.28
2019-04-14T14:00:29.821Z,10.93
2019-04-14T14:02:58.570Z,8.90
2019-04-14T14:05:27.338Z,10.05
2019-04-14T14:07:56.420Z,9.93
2019-04-14T14:10:25.148Z,8.98
2019-04-14T14:12:55.635Z,8.10
2019-04-14T14:15:38.121Z,9.38
2019-04-14T14:18:24.936Z,7.92
2019-04-14T14:24:32.557Z,7.87
2019-04-14T14:30:09.161Z,8.80
2019-04-14T14:36:06.679Z,6.42
2019-04-14T14:38:35.430Z,8.05
2019-04-14T14:41:06.278Z,8.13
2019-04-14T14:43:35.053Z,10.05
2019-04-14T14:46:20.360Z,8.98
2019-04-14T14:48:50.942Z,7.83
2019-04-14T14:51:28.859Z,7.95
2019-04-14T14:53:57.926Z,7.15
2019-04-14T14:59:55.923Z,8.50
2019-04-14T15:05:30.350Z,8.65
2019-04-14T15:11:04.559Z,7.70
2019-04-14T15:13:33.319Z,8.75
2019-04-14T15:16:02.067Z,7.92
2019-04-14T15:18:30.707Z,6.60
2019-04-14T15:20:59.373Z,6.62
2019-04-14T15:33:12.281Z,7.90
2019-04-14T15:35:41.020Z,7.70
2019-04-14T15:41:13.975Z,7.53
2019-04-14T15:47:23.734Z,8.15
2019-04-14T15:49:52.395Z,6.95
2019-04-14T15:52:21.127Z,7.53
2019-04-14T15:54:49.775Z,6.80
2019-04-14T15:57:20.147Z,7.03
2019-04-14T15:59:50.453Z,6.53
2019-04-14T16:02:38.711Z,7.65
2019-04-14T16:05:12.650Z,6.03
2019-04-14T16:07:48.975Z,6.40
2019-04-14T16:10:19.284Z,5.37
2019-04-14T16:12:49.588Z,6.40
2019-04-14T16:15:36.137Z,7.95
2019-04-14T16:21:09.318Z,8.68
2019-04-14T16:23:49.701Z,6.03
2019-04-14T16:26:12.910Z,7.42
2019-04-14T16:32:03.976Z,5.40
2019-04-14T16:37:49.819Z,11.10
2019-04-14T16:40:18.489Z,6.40
2019-04-14T16:42:47.163Z,5.97
2019-04-14T16:45:15.978Z,6.28
2019-04-14T16:47:44.638Z,6.30
2019-04-14T16:57:35.750Z,5.67
2019-04-14T17:00:07.654Z,6.30
2019-04-14T17:02:36.273Z,8.30
2019-04-14T17:08:33.462Z,6.78
2019-04-14T17:11:02.199Z,6.83
2019-04-14T17:13:32.613Z,5.70
2019-04-14T17:19:07.568Z,8.60
2019-04-14T17:21:49.719Z,11.22
2019-04-14T17:33:33.248Z,7.22
2019-04-14T17:36:06.423Z,10.23
2019-04-14T17:38:45.874Z,7.92
2019-04-14T17:44:09.967Z,19.27
2019-04-14T17:46:45.831Z,9.05
2019-04-14T17:49:19.198Z,7.45
2019-04-14T17:51:49.560Z,7.35
2019-04-14T17:54:29.744Z,8.13
2019-04-14T18:00:18.966Z,9.30
2019-04-14T18:02:52.126Z,7.53
2019-04-14T18:08:28.636Z,10.60
2019-04-14T18:14:10.510Z,11.75
2019-04-14T18:16:40.790Z,11.43
2019-04-14T18:19:22.799Z,9.98
2019-04-14T18:24:56.256Z,10.03
2019-04-14T18:30:43.349Z,10.20
2019-04-14T18:33:19.920Z,11.22
2019-04-14T18:35:50.248Z,11.15
2019-04-14T18:38:20.588Z,11.28
2019-04-14T18:40:55.499Z,11.08
2019-04-14T18:43:35.695Z,9.55
2019-04-14T18:46:11.821Z,10.72
2019-04-14T18:48:50.848Z,11.70
2019-04-14T18:51:21.261Z,12.07
2019-04-14T18:53:54.110Z,11.97
2019-04-14T18:59:53.369Z,13.43
2019-04-14T19:06:02.948Z,12.98
2019-04-14T19:08:42.234Z,11.35
2019-04-14T19:11:18.126Z,14.05
2019-04-14T19:17:04.959Z,17.70
2019-04-14T19:19:35.393Z,23.55
2019-04-14T19:25:36.454Z,19.85
2019-04-14T19:31:21.813Z,20.12
2019-04-14T19:33:53.776Z,18.70
2019-04-14T19:36:22.559Z,22.10
2019-04-14T19:46:06.485Z,19.98
2019-04-14T19:51:40.279Z,20.90
2019-04-14T19:54:09.149Z,20.52
2019-04-14T19:56:37.860Z,21.85
2019-04-14T20:02:23.903Z,21.12
2019-04-14T20:04:52.730Z,19.92
2019-04-14T20:07:22.400Z,20.27
2019-04-14T20:09:56.631Z,21.62
2019-04-14T20:12:25.376Z,19.90
2019-04-14T20:18:54.523Z,23.73
2019-04-14T20:21:30.724Z,24.80
2019-04-14T20:24:06.896Z,23.25
2019-04-14T20:26:46.427Z,22.80
2019-04-14T20:32:46.282Z,24.43
2019-04-14T20:35:14.919Z,21.20
2019-04-14T20:37:43.650Z,21.97
2019-04-14T20:40:12.950Z,22.05
2019-04-14T20:42:41.940Z,21.70
2019-04-14T20:45:14.704Z,22.17
2019-04-14T20:47:43.507Z,20.75
2019-04-14T20:50:13.187Z,22.90
2019-04-14T20:52:41.851Z,23.55
2019-04-14T21:02:22.251Z,22.45
2019-04-14T21:05:02.769Z,21.23
2019-04-14T21:07:33.690Z,20.25
2019-04-14T21:13:08.711Z,20.57
2019-04-14T21:18:55.227Z,18.62
2019-04-14T21:21:25.606Z,23.60
2019-04-14T21:27:19.123Z,20.00
2019-04-14T21:33:46.743Z,19.90
2019-04-14T21:36:27.493Z,20.77
2019-04-14T21:38:57.842Z,20.05
2019-04-14T21:41:34.090Z,17.05
2019-04-14T21:44:05.368Z,20.32
2019-04-14T21:46:34.080Z,16.42
2019-04-14T21:49:03.246Z,20.20
2019-04-14T21:51:33.672Z,18.50
2019-04-14T21:54:02.349Z,17.30
2019-04-14T21:56:35.236Z,20.70
2019-04-14T21:59:07.285Z,16.23
2019-04-14T22:02:03.338Z,16.65
2019-04-14T22:07:20.291Z,16.97
2019-04-14T22:13:18.181Z,14.73
2019-04-14T22:19:15.777Z,13.95
2019-04-14T22:24:49.315Z,15.43
2019-04-14T22:27:18.145Z,13.48
2019-04-14T22:29:46.812Z,12.50
2019-04-14T22:32:15.570Z,13.22
2019-04-14T22:34:44.427Z,12.70
2019-04-14T22:37:13.163Z,19.12
2019-04-14T22:39:45.998Z,14.30
2019-04-14T22:49:12.011Z,15.08
2019-04-14T22:59:59.658Z,15.93
2019-04-14T23:06:03.112Z,16.52
2019-04-14T23:08:33.668Z,15.05
2019-04-14T23:14:11.416Z,16.82
2019-04-14T23:20:26.463Z,16.67
2019-04-14T23:32:12.633Z,15.65
2019-04-14T23:34:41.359Z,15.10
2019-04-14T23:37:10.092Z,16.00
2019-04-14T23:39:38.818Z,13.90
2019-04-14T23:45:38.638Z,14.50
2019-04-14T23:51:12.162Z,19.82
2019-04-14T23:57:05.198Z,26.90
2019-04-14T23:59:28.767Z,22.10
